Time;durP1;ratioP1;P1;durP2;ratioP2;P2;SDS_P1;SDS_P2;PMS_P1;PMS_P2;Temp;Humidity;BMP_temperature;BMP_pressure;BME280_temperature;BME280_humidity;BME280_pressure;Samples;Min_cycle;Max_cycle;Signal;HPM_P1;HPM_P2
2023/10/31 00:01:28;;;;;;;;;1.00;1.00;;;;;13.61;80.71;97750.34;5077842;28;8828;-58
2023/10/31 00:03:56;;;;;;;;;0.00;0.00;;;;;13.63;81.04;97760.81;5081471;28;8800;-58
2023/10/31 00:06:23;;;;;;;;;1.00;1.00;;;;;13.64;81.02;97768.66;5097418;28;8815;-60
2023/10/31 00:08:51;;;;;;;;;1.00;1.00;;;;;13.65;80.86;97772.13;5092848;28;8808;-59
2023/10/31 00:11:19;;;;;;;;;1.00;1.00;;;;;13.64;80.76;97784.69;5078299;28;8816;-57
2023/10/31 00:13:46;;;;;;;;;0.00;0.00;;;;;13.61;80.40;97792.28;5078270;28;8856;-58
2023/10/31 00:16:14;;;;;;;;;2.00;2.00;;;;;13.52;81.01;97810.31;5078221;28;8823;-60
2023/10/31 00:18:42;;;;;;;;;1.00;1.00;;;;;13.43;80.71;97805.31;5078049;28;8824;-60
2023/10/31 00:21:09;;;;;;;;;1.00;1.00;;;;;13.34;81.50;97825.16;5084836;28;8856;-60
2023/10/31 00:23:37;;;;;;;;;1.00;1.00;;;;;13.25;81.08;97831.63;5098193;28;8830;-60
2023/10/31 00:26:05;;;;;;;;;1.50;1.50;;;;;13.16;81.30;97825.59;5098424;28;8822;-60
2023/10/31 00:28:32;;;;;;;;;0.75;0.25;;;;;13.10;81.33;97817.50;5098335;28;8913;-58
2023/10/31 00:31:01;;;;;;;;;2.00;2.00;;;;;13.01;81.47;97827.50;5100650;28;8936;-60
2023/10/31 00:33:30;;;;;;;;;1.00;1.00;;;;;12.96;82.07;97839.75;5099220;28;8846;-60
2023/10/31 00:35:58;;;;;;;;;2.00;1.50;;;;;12.89;82.34;97836.13;5093367;28;8925;-59
2023/10/31 00:38:25;;;;;;;;;3.00;3.00;;;;;12.83;82.05;97852.94;5077870;28;8816;-58
2023/10/31 00:40:53;;;;;;;;;1.00;1.00;;;;;12.79;81.89;97857.00;5077882;28;8851;-58
2023/10/31 00:43:21;;;;;;;;;0.50;0.50;;;;;12.75;81.79;97869.06;5077803;28;8816;-58
2023/10/31 00:45:49;;;;;;;;;1.00;0.50;;;;;12.69;82.18;97872.47;5077840;28;9512;-59
2023/10/31 00:48:16;;;;;;;;;0.00;0.00;;;;;12.64;81.99;97878.38;5077906;28;8813;-60
2023/10/31 00:50:44;;;;;;;;;1.50;1.50;;;;;12.61;81.90;97880.59;5077329;28;8832;-57
2023/10/31 00:53:14;;;;;;;;;2.00;2.00;;;;;12.57;81.82;97887.31;5077741;28;9490;-60
2023/10/31 00:55:42;;;;;;;;;1.50;1.50;;;;;12.53;81.83;97891.38;5077387;28;8838;-58
2023/10/31 00:58:09;;;;;;;;;0.00;0.00;;;;;12.47;82.21;97876.91;5077623;28;8925;-60
2023/10/31 01:00:38;;;;;;;;;1.00;1.00;;;;;12.43;82.08;97882.78;5077282;28;9555;-60
2023/10/31 01:03:05;;;;;;;;;1.00;1.00;;;;;12.38;81.82;97877.19;5075413;28;8808;-59
2023/10/31 01:05:33;;;;;;;;;2.50;1.00;;;;;12.33;81.92;97895.59;5077134;28;8832;-60
2023/10/31 01:08:01;;;;;;;;;0.00;0.00;;;;;12.30;82.11;97890.63;5076463;28;8818;-59
2023/10/31 01:10:28;;;;;;;;;3.25;2.50;;;;;12.25;82.25;97907.16;5080468;28;8836;-60
2023/10/31 01:12:56;;;;;;;;;1.00;0.50;;;;;12.23;81.96;97908.38;5097338;28;8852;-58
2023/10/31 01:15:23;;;;;;;;;0.50;0.50;;;;;12.20;81.95;97909.56;5089857;28;8833;-58
2023/10/31 01:17:50;;;;;;;;;1.00;1.00;;;;;12.18;82.37;97910.75;5077070;28;8815;-57
2023/10/31 01:20:18;;;;;;;;;0.75;0.75;;;;;12.17;81.93;97919.78;5077000;28;8914;-59
2023/10/31 01:22:45;;;;;;;;;2.50;2.00;;;;;12.14;82.14;97917.44;5076811;28;8820;-58
2023/10/31 01:25:13;;;;;;;;;1.50;1.50;;;;;12.12;82.43;97920.31;5077078;28;9615;-58
2023/10/31 01:27:41;;;;;;;;;1.00;1.00;;;;;12.09;81.84;97925.19;5084761;28;8806;-60
2023/10/31 01:30:09;;;;;;;;;1.00;1.00;;;;;12.09;81.90;97925.19;5097121;28;8875;-59
2023/10/31 01:32:37;;;;;;;;;3.00;2.50;;;;;12.08;82.25;97924.34;5096060;28;8822;-58
2023/10/31 01:35:05;;;;;;;;;1.00;1.00;;;;;12.07;82.18;97933.38;5095987;28;8837;-60
2023/10/31 01:37:33;;;;;;;;;1.00;0.75;;;;;12.07;81.97;97953.91;5095665;28;8903;-59
2023/10/31 01:40:00;;;;;;;;;1.00;1.00;;;;;12.03;81.74;97945.41;5096661;28;8839;-57
2023/10/31 01:42:28;;;;;;;;;2.00;1.00;;;;;12.02;82.15;97961.59;5096995;28;8818;-57
2023/10/31 01:44:56;;;;;;;;;3.00;3.00;;;;;11.98;82.00;97961.13;5083747;28;8913;-60
2023/10/31 01:47:24;;;;;;;;;2.50;2.50;;;;;11.94;82.30;97964.34;5076767;28;8847;-59
2023/10/31 01:49:52;;;;;;;;;2.00;1.50;;;;;11.91;82.24;97969.19;5076560;28;8813;-58
2023/10/31 01:52:19;;;;;;;;;2.00;2.00;;;;;11.86;82.23;97967.06;5076621;28;8828;-58
2023/10/31 01:54:47;;;;;;;;;3.00;1.00;;;;;11.83;81.87;97972.75;5076606;28;8851;-58
2023/10/31 01:57:15;;;;;;;;;1.00;1.00;;;;;11.79;82.36;97968.78;5076747;28;8823;-57
2023/10/31 01:59:43;;;;;;;;;3.00;3.00;;;;;11.76;82.06;97974.44;5076463;28;8840;-59
2023/10/31 02:02:11;;;;;;;;;1.00;1.00;;;;;11.73;81.82;97976.66;5076228;28;8816;-60
2023/10/31 02:04:38;;;;;;;;;1.00;1.00;;;;;11.70;81.89;97967.19;5075407;28;8818;-60
2023/10/31 02:07:06;;;;;;;;;2.00;2.00;;;;;11.68;82.40;97981.69;5075080;28;9478;-59
2023/10/31 02:09:33;;;;;;;;;2.00;2.00;;;;;11.65;81.60;97974.03;5075182;28;8847;-58
2023/10/31 02:12:01;;;;;;;;;3.50;3.50;;;;;11.65;81.90;97960.69;5074057;28;8820;-59
2023/10/31 02:14:29;;;;;;;;;2.00;2.00;;;;;11.62;81.74;97972.56;5075086;28;8844;-58
2023/10/31 02:16:57;;;;;;;;;1.00;1.00;;;;;11.60;81.90;97963.09;5075572;28;8808;-59
2023/10/31 02:19:25;;;;;;;;;1.00;1.00;;;;;11.57;81.76;97974.06;5073466;28;8808;-59
2023/10/31 02:21:53;;;;;;;;;3.50;3.00;;;;;11.56;81.60;97970.56;5075026;28;8828;-57
2023/10/31 02:24:21;;;;;;;;;1.00;0.50;;;;;11.54;82.32;97967.22;5061417;28;8858;-59
2023/10/31 02:26:48;;;;;;;;;3.00;3.00;;;;;11.53;82.24;97976.25;5075151;28;8897;-57
2023/10/31 02:29:16;;;;;;;;;3.00;1.00;;;;;11.51;81.69;97983.59;5078375;28;8801;-58
2023/10/31 02:31:43;;;;;;;;;0.75;0.75;;;;;11.51;81.84;97983.59;5090770;28;8829;-60
2023/10/31 02:34:11;;;;;;;;;1.00;1.00;;;;;11.51;81.89;97988.13;5094419;28;8912;-59
2023/10/31 02:36:39;;;;;;;;;1.00;1.00;;;;;11.50;81.59;97997.09;5075990;28;8824;-58
2023/10/31 02:39:06;;;;;;;;;2.50;2.50;;;;;11.44;81.97;97998.63;5076323;28;8899;-59
2023/10/31 02:41:34;;;;;;;;;2.00;2.00;;;;;11.38;81.91;97993.16;5076128;28;8820;-58
2023/10/31 02:44:02;;;;;;;;;3.00;3.00;;;;;11.30;82.03;98003.88;5075686;28;8840;-58
2023/10/31 02:46:30;;;;;;;;;3.00;3.00;;;;;11.20;82.11;98001.41;5078464;28;8899;-58
2023/10/31 02:48:57;;;;;;;;;0.75;0.75;;;;;11.10;82.17;98008.78;5096110;28;8825;-57
2023/10/31 02:51:25;;;;;;;;;0.75;0.75;;;;;11.03;82.23;98006.97;5095485;28;8826;-56
2023/10/31 02:53:52;;;;;;;;;3.00;1.00;;;;;10.96;82.90;98011.31;5075349;28;8820;-59
2023/10/31 02:56:20;;;;;;;;;2.00;2.00;;;;;10.90;82.61;98015.50;5075952;28;8875;-58
2023/10/31 02:58:48;;;;;;;;;3.00;3.00;;;;;10.86;82.49;98024.81;5075840;28;8824;-59
2023/10/31 03:01:17;;;;;;;;;2.50;2.50;;;;;10.82;83.17;98022.69;5075957;28;8863;-58
2023/10/31 03:03:45;;;;;;;;;2.00;2.00;;;;;10.77;83.10;98019.72;5075781;28;8812;-60
2023/10/31 03:06:13;;;;;;;;;3.25;3.25;;;;;10.73;83.10;98021.91;5075833;28;8934;-59
2023/10/31 03:08:41;;;;;;;;;2.00;1.00;;;;;10.68;83.49;98024.22;5075834;28;9490;-57
2023/10/31 03:11:08;;;;;;;;;1.00;1.00;;;;;10.65;83.08;98021.06;5075634;28;8824;-59
2023/10/31 03:13:36;;;;;;;;;1.00;1.00;;;;;10.63;83.31;98023.06;5075649;28;8942;-58
2023/10/31 03:16:03;;;;;;;;;2.00;1.50;;;;;10.61;83.69;98028.56;5075684;28;8839;-57
2023/10/31 03:18:31;;;;;;;;;3.00;1.00;;;;;10.61;83.42;98022.41;5075622;28;8928;-57
2023/10/31 03:20:59;;;;;;;;;1.00;1.00;;;;;10.60;83.52;98024.25;5075659;28;8840;-58
2023/10/31 03:23:26;;;;;;;;;1.50;1.50;;;;;10.59;83.37;98027.91;5075099;28;8808;-59
2023/10/31 03:25:54;;;;;;;;;3.00;1.00;;;;;10.60;82.99;98021.56;5075818;28;8849;-58
2023/10/31 03:28:23;;;;;;;;;2.50;2.50;;;;;10.59;83.40;98014.59;5078881;28;8958;-59
2023/10/31 03:30:51;;;;;;;;;0.50;0.50;;;;;10.61;83.08;98020.56;5077607;28;8792;-59
2023/10/31 03:33:19;;;;;;;;;2.00;2.00;;;;;10.61;83.52;98015.25;5078194;28;8869;-60
2023/10/31 03:35:47;;;;;;;;;4.50;3.75;;;;;10.61;83.27;98017.09;5078743;28;8905;-59
2023/10/31 03:38:14;;;;;;;;;3.00;3.00;;;;;10.61;83.66;98014.44;5078880;28;8832;-58
2023/10/31 03:40:42;;;;;;;;;3.25;2.00;;;;;10.61;83.15;98012.59;5079275;28;8975;-58
2023/10/31 03:43:10;;;;;;;;;5.00;4.50;;;;;10.62;83.47;98022.22;5079195;28;8831;-58
2023/10/31 03:45:37;;;;;;;;;3.25;3.00;;;;;10.63;83.53;98023.06;5081870;28;9526;-58
2023/10/31 03:48:05;;;;;;;;;3.25;3.00;;;;;10.64;83.25;98024.72;5088935;28;8822;-58
2023/10/31 03:50:33;;;;;;;;;1.00;1.00;;;;;10.67;83.25;98035.03;5099503;28;8825;-60
2023/10/31 03:53:00;;;;;;;;;2.00;2.00;;;;;10.67;83.55;98035.88;5081667;28;8840;-57
2023/10/31 03:55:28;;;;;;;;;4.00;4.00;;;;;10.68;83.70;98034.88;5078754;28;8834;-59
2023/10/31 03:57:54;;;;;;;;;1.00;1.00;;;;;10.68;83.55;98037.53;5078748;28;8835;-59
2023/10/31 04:00:22;;;;;;;;;3.50;3.50;;;;;10.71;83.59;98034.50;5078889;28;8834;-57
2023/10/31 04:02:50;;;;;;;;;4.00;4.00;;;;;10.72;83.34;98052.19;5078973;28;8917;-58
2023/10/31 04:05:17;;;;;;;;;7.50;6.25;;;;;10.73;83.41;98058.31;5096870;28;8830;-60
2023/10/31 04:07:45;;;;;;;;;6.75;6.00;;;;;10.73;83.33;98045.00;5099236;28;9468;-58
2023/10/31 04:10:13;;;;;;;;;3.00;3.00;;;;;10.73;83.04;98051.19;5098656;28;8832;-59
2023/10/31 04:12:41;;;;;;;;;4.50;3.50;;;;;10.73;83.26;98061.81;5098679;28;8814;-59
2023/10/31 04:15:09;;;;;;;;;6.00;6.00;;;;;10.73;83.34;98059.16;5098873;28;8943;-59
2023/10/31 04:17:36;;;;;;;;;3.50;3.50;;;;;10.73;83.29;98074.28;5088122;28;8925;-57
2023/10/31 04:20:04;;;;;;;;;4.00;3.50;;;;;10.71;83.45;98071.78;5078634;28;8828;-60
2023/10/31 04:22:31;;;;;;;;;4.00;3.50;;;;;10.70;83.64;98067.47;5078445;28;9581;-57
2023/10/31 04:24:59;;;;;;;;;3.00;3.00;;;;;10.70;83.72;98067.47;5078590;28;8817;-59
2023/10/31 04:27:27;;;;;;;;;3.75;3.25;;;;;10.69;83.44;98075.66;5078612;28;9569;-59
2023/10/31 04:29:55;;;;;;;;;6.00;4.00;;;;;10.68;84.08;98072.13;5078263;28;8838;-58
2023/10/31 04:32:22;;;;;;;;;5.50;5.50;;;;;10.68;83.79;98074.78;5078013;28;8820;-59
2023/10/31 04:34:50;;;;;;;;;0.00;0.00;;;;;10.67;83.85;98062.50;5078076;28;8836;-59
2023/10/31 04:37:18;;;;;;;;;4.50;3.50;;;;;10.65;83.71;98075.16;5078237;28;8832;-59
2023/10/31 04:39:46;;;;;;;;;6.00;6.00;;;;;10.66;83.76;98074.16;5077972;28;8864;-57
2023/10/31 04:42:13;;;;;;;;;6.00;5.00;;;;;10.68;83.46;98073.94;5077931;28;8812;-58
2023/10/31 04:44:41;;;;;;;;;5.50;5.50;;;;;10.67;84.11;98083.78;5078242;28;8825;-58
2023/10/31 04:47:08;;;;;;;;;3.00;2.00;;;;;10.66;83.43;98081.28;5077402;28;8821;-57
2023/10/31 04:49:36;;;;;;;;;3.00;1.00;;;;;10.65;83.66;98080.47;5077826;28;8824;-57
2023/10/31 04:52:04;;;;;;;;;2.50;1.00;;;;;10.64;83.94;98081.47;5076144;28;8836;-57
2023/10/31 04:54:32;;;;;;;;;1.00;1.00;;;;;10.64;83.76;98078.81;5057343;28;8826;-60
2023/10/31 04:56:59;;;;;;;;;6.50;6.50;;;;;10.65;83.61;98088.47;5066165;28;8804;-59
2023/10/31 04:59:27;;;;;;;;;2.50;2.00;;;;;10.63;84.00;98082.44;5077196;28;8816;-59
2023/10/31 05:01:55;;;;;;;;;6.25;6.00;;;;;10.62;83.78;98090.63;5079878;28;8824;-59
2023/10/31 05:04:22;;;;;;;;;2.00;2.00;;;;;10.61;84.23;98086.31;5093034;28;8818;-60
2023/10/31 05:06:50;;;;;;;;;3.00;3.00;;;;;10.60;83.60;98089.94;5094624;28;8829;-59
2023/10/31 05:09:19;;;;;;;;;2.00;1.00;;;;;10.59;84.16;98094.44;5076962;28;8828;-59
2023/10/31 05:11:48;;;;;;;;;4.50;4.00;;;;;10.60;84.02;98084.59;5076898;28;8832;-60
2023/10/31 05:14:15;;;;;;;;;3.25;2.50;;;;;10.59;84.45;98091.78;5076724;28;8887;-57
2023/10/31 05:16:43;;;;;;;;;2.50;2.00;;;;;10.58;84.14;98095.44;5076365;28;8828;-58
2023/10/31 05:19:11;;;;;;;;;1.50;1.50;;;;;10.58;83.99;98099.91;5080975;28;8806;-58
2023/10/31 05:21:38;;;;;;;;;4.00;4.00;;;;;10.59;84.14;98106.91;5097425;28;8818;-57
2023/10/31 05:24:06;;;;;;;;;1.00;1.00;;;;;10.58;83.96;98103.44;5097323;28;8818;-59
2023/10/31 05:26:33;;;;;;;;;3.00;3.00;;;;;10.58;83.75;98106.09;5078472;28;8848;-59
2023/10/31 05:29:01;;;;;;;;;1.00;1.00;;;;;10.59;83.91;98097.09;5077002;28;8816;-58
2023/10/31 05:31:29;;;;;;;;;4.50;3.50;;;;;10.58;84.49;98106.09;5077107;28;9512;-59
2023/10/31 05:33:57;;;;;;;;;1.00;1.00;;;;;10.57;84.30;98112.41;5076816;28;8828;-59
2023/10/31 05:36:25;;;;;;;;;0.00;0.00;;;;;10.56;83.78;98102.75;5076584;28;8862;-59
2023/10/31 05:38:53;;;;;;;;;1.00;1.00;;;;;10.57;84.07;98117.75;5076622;28;8836;-57
2023/10/31 05:41:21;;;;;;;;;3.00;3.00;;;;;10.56;84.49;98113.38;5076584;28;8824;-57
2023/10/31 05:43:48;;;;;;;;;3.25;3.25;;;;;10.56;83.96;98124.03;5076176;28;8816;-59
2023/10/31 05:46:16;;;;;;;;;3.00;3.00;;;;;10.56;84.03;98128.53;5076389;28;8848;-59
2023/10/31 05:48:44;;;;;;;;;0.50;0.50;;;;;10.56;84.42;98140.00;5075661;28;8828;-57
2023/10/31 05:51:12;;;;;;;;;2.00;1.00;;;;;10.56;84.29;98144.50;5076372;28;8820;-59
2023/10/31 05:53:40;;;;;;;;;3.00;3.00;;;;;10.56;84.37;98148.00;5076367;28;8824;-59
2023/10/31 05:56:08;;;;;;;;;2.00;2.00;;;;;10.57;84.31;98162.97;5075823;28;9615;-59
2023/10/31 05:58:36;;;;;;;;;3.00;3.00;;;;;10.57;84.55;98157.66;5074780;28;8854;-59
2023/10/31 06:01:04;;;;;;;;;0.75;0.75;;;;;10.58;84.55;98169.97;5075980;28;8824;-59
2023/10/31 06:03:32;;;;;;;;;1.00;1.00;;;;;10.58;84.11;98161.97;5075182;28;8847;-59
2023/10/31 06:06:00;;;;;;;;;2.00;2.00;;;;;10.58;84.24;98169.97;5075282;28;8846;-59
2023/10/31 06:08:28;;;;;;;;;1.00;1.00;;;;;10.59;84.18;98181.44;5074230;28;8812;-58
2023/10/31 06:10:56;;;;;;;;;3.00;3.00;;;;;10.59;84.06;98176.94;5074789;28;8859;-59
2023/10/31 06:13:25;;;;;;;;;2.50;2.00;;;;;10.60;83.76;98180.44;5074126;28;8834;-58
2023/10/31 06:15:53;;;;;;;;;3.00;2.50;;;;;10.60;84.38;98183.09;5080393;28;8937;-58
2023/10/31 06:18:22;;;;;;;;;4.00;3.50;;;;;10.59;84.03;98190.25;5095529;28;8834;-58
2023/10/31 06:20:49;;;;;;;;;3.00;1.50;;;;;10.61;84.03;98190.91;5085475;28;8816;-57
2023/10/31 06:23:17;;;;;;;;;3.00;3.00;;;;;10.61;84.45;98196.25;5074173;28;8839;-57
2023/10/31 06:25:44;;;;;;;;;3.00;2.00;;;;;10.62;84.14;98192.56;5074426;28;8816;-57
2023/10/31 06:28:13;;;;;;;;;2.00;2.00;;;;;10.63;83.66;98201.41;5074640;28;9599;-56
2023/10/31 06:30:40;;;;;;;;;4.00;3.75;;;;;10.63;84.45;98215.53;5073980;28;8924;-58
2023/10/31 06:33:08;;;;;;;;;2.00;1.00;;;;;10.66;83.98;98217.03;5077517;28;8824;-58
2023/10/31 06:35:36;;;;;;;;;3.50;3.50;;;;;10.65;84.41;98216.22;5073772;28;8840;-58
2023/10/31 06:38:04;;;;;;;;;4.25;3.75;;;;;10.65;84.07;98226.88;5074760;28;8824;-57
2023/10/31 06:40:33;;;;;;;;;6.00;4.00;;;;;10.66;84.00;98219.69;5074575;28;8905;-58
2023/10/31 06:43:01;;;;;;;;;5.00;3.00;;;;;10.68;84.41;98225.69;5074819;28;9498;-58
2023/10/31 06:45:29;;;;;;;;;6.00;4.00;;;;;10.71;83.92;98239.50;5074704;28;8852;-59
2023/10/31 06:47:56;;;;;;;;;7.50;7.25;;;;;10.72;84.07;98235.03;5074467;28;8836;-58
2023/10/31 06:50:24;;;;;;;;;6.25;4.00;;;;;10.75;83.91;98240.84;5074035;28;8874;-57
2023/10/31 06:52:52;;;;;;;;;6.25;6.00;;;;;10.78;83.96;98245.00;5073037;28;8858;-58
2023/10/31 06:55:20;;;;;;;;;6.00;5.75;;;;;10.80;83.46;98248.34;5073106;28;8848;-56
2023/10/31 06:57:48;;;;;;;;;8.50;7.00;;;;;10.82;83.61;98247.19;5073006;28;8839;-57
2023/10/31 07:00:15;;;;;;;;;4.00;4.00;;;;;10.85;83.57;98248.69;5073125;28;8846;-56
2023/10/31 07:02:43;;;;;;;;;6.50;6.00;;;;;10.87;83.26;98249.34;5076773;28;8816;-58
2023/10/31 07:05:11;;;;;;;;;6.50;5.50;;;;;10.89;83.49;98250.84;5076275;28;8844;-58
2023/10/31 07:07:39;;;;;;;;;3.25;3.00;;;;;10.93;83.58;98254.81;5076747;28;8831;-56
2023/10/31 07:10:06;;;;;;;;;4.00;4.00;;;;;10.94;83.66;98255.69;5077028;28;8858;-58
2023/10/31 07:12:34;;;;;;;;;1.00;1.00;;;;;10.95;82.83;98260.84;5077158;28;8848;-56
2023/10/31 07:15:02;;;;;;;;;6.50;6.50;;;;;10.95;83.32;98258.19;5077439;28;8856;-57
2023/10/31 07:17:30;;;;;;;;;4.00;4.00;;;;;10.96;82.95;98265.16;5076843;28;8843;-59
2023/10/31 07:19:58;;;;;;;;;7.00;6.00;;;;;10.97;83.34;98261.50;5077197;28;8848;-59
2023/10/31 07:22:25;;;;;;;;;7.00;6.75;;;;;10.99;82.94;98270.16;5078160;28;9505;-56
2023/10/31 07:24:54;;;;;;;;;7.75;7.75;;;;;11.01;83.21;98268.16;5077859;28;8852;-59
2023/10/31 07:27:21;;;;;;;;;5.00;5.00;;;;;11.02;83.23;98264.50;5078250;28;8985;-58
2023/10/31 07:29:50;;;;;;;;;6.00;5.50;;;;;11.06;83.08;98276.50;5077491;28;8868;-57
2023/10/31 07:32:18;;;;;;;;;6.25;5.25;;;;;11.09;82.67;98260.16;5077184;28;8859;-59
2023/10/31 07:34:46;;;;;;;;;5.00;4.00;;;;;11.13;82.57;98272.16;5077191;28;8844;-59
2023/10/31 07:37:13;;;;;;;;;3.25;3.00;;;;;11.17;82.66;98273.50;5076726;28;8839;-57
2023/10/31 07:39:42;;;;;;;;;6.75;5.00;;;;;11.17;82.63;98278.00;5076420;28;8901;-59
2023/10/31 07:42:10;;;;;;;;;5.00;4.00;;;;;11.19;82.92;98274.16;5076151;28;8852;-57
2023/10/31 07:44:37;;;;;;;;;3.25;3.25;;;;;11.16;82.77;98279.81;5076474;28;8998;-59
2023/10/31 07:47:05;;;;;;;;;3.75;3.00;;;;;11.15;83.04;98278.16;5076484;28;8851;-58
2023/10/31 07:49:33;;;;;;;;;3.75;3.00;;;;;11.15;82.64;98274.66;5076535;28;8864;-57
2023/10/31 07:52:01;;;;;;;;;1.00;1.00;;;;;11.18;82.88;98277.84;5077057;28;8820;-59
2023/10/31 07:54:29;;;;;;;;;6.00;3.00;;;;;11.22;82.63;98278.34;5077729;28;8956;-58
2023/10/31 07:56:57;;;;;;;;;6.00;6.00;;;;;11.26;82.46;98284.97;5076996;28;9533;-58
2023/10/31 07:59:25;;;;;;;;;4.00;3.00;;;;;11.27;82.14;98282.16;5076948;28;8828;-59
2023/10/31 08:01:52;;;;;;;;;3.25;3.25;;;;;11.26;82.22;98277.84;5076699;28;8840;-59
2023/10/31 08:04:20;;;;;;;;;6.25;5.25;;;;;11.27;82.72;98284.81;5077076;28;9763;-57
2023/10/31 08:06:48;;;;;;;;;5.00;3.50;;;;;11.29;82.54;98284.66;5076967;28;8849;-58
2023/10/31 08:09:17;;;;;;;;;6.50;5.50;;;;;11.31;82.77;98288.81;5076907;28;8998;-59
2023/10/31 08:11:45;;;;;;;;;3.50;3.50;;;;;11.34;82.39;98290.31;5076834;28;8889;-59
2023/10/31 08:14:13;;;;;;;;;3.00;3.00;;;;;11.35;82.23;98302.63;5077761;28;8978;-58
2023/10/31 08:16:41;;;;;;;;;3.00;3.00;;;;;11.34;82.77;98296.47;5077685;28;9628;-56
2023/10/31 08:19:08;;;;;;;;;5.00;3.50;;;;;11.36;82.63;98314.97;5077271;28;8829;-59
2023/10/31 08:21:38;;;;;;;;;1.00;1.00;;;;;11.35;82.21;98307.94;5077305;28;8982;-59
2023/10/31 08:24:06;;;;;;;;;5.00;4.00;;;;;11.34;82.18;98312.47;5077220;28;9563;-57
2023/10/31 08:26:34;;;;;;;;;1.50;1.00;;;;;11.37;82.57;98311.31;5076965;28;8851;-59
2023/10/31 08:29:03;;;;;;;;;4.00;3.00;;;;;11.40;82.36;98311.81;5075703;28;8839;-57
2023/10/31 08:31:31;;;;;;;;;3.50;3.50;;;;;11.45;82.14;98321.97;5075092;28;8951;-59
2023/10/31 08:33:59;;;;;;;;;3.75;3.50;;;;;11.50;82.41;98320.47;5075301;28;8882;-58
2023/10/31 08:36:27;;;;;;;;;0.25;0.25;;;;;11.53;82.30;98324.63;5075343;28;8848;-57
2023/10/31 08:38:55;;;;;;;;;3.50;3.50;;;;;11.54;81.72;98324.44;5074678;28;8832;-55
2023/10/31 08:41:23;;;;;;;;;4.00;3.50;;;;;11.56;82.27;98335.78;5075202;28;8859;-59
2023/10/31 08:43:51;;;;;;;;;5.50;4.00;;;;;11.57;81.83;98334.78;5075661;28;8824;-59
2023/10/31 08:46:19;;;;;;;;;4.00;3.75;;;;;11.59;82.53;98338.13;5076221;28;8828;-57
2023/10/31 08:48:48;;;;;;;;;5.50;5.50;;;;;11.59;81.74;98338.13;5075277;28;8975;-58
2023/10/31 08:51:17;;;;;;;;;5.75;5.25;;;;;11.60;82.01;98338.97;5076178;28;8851;-57
2023/10/31 08:53:45;;;;;;;;;5.00;4.00;;;;;11.59;82.07;98340.81;5076273;28;8855;-57
2023/10/31 08:56:14;;;;;;;;;4.00;3.50;;;;;11.63;81.84;98349.31;5076273;28;8847;-59
2023/10/31 08:58:42;;;;;;;;;5.00;4.50;;;;;11.65;81.72;98350.81;5076516;28;9518;-58
2023/10/31 09:01:10;;;;;;;;;5.00;5.00;;;;;11.75;81.73;98353.31;5075361;28;8859;-59
2023/10/31 09:03:38;;;;;;;;;4.00;4.00;;;;;11.85;81.90;98360.13;5075401;28;9533;-56
2023/10/31 09:06:07;;;;;;;;;7.00;6.50;;;;;11.94;81.75;98353.78;5075811;28;8836;-58
2023/10/31 09:08:36;;;;;;;;;7.00;6.75;;;;;12.06;80.85;98357.72;5075588;28;9571;-59
2023/10/31 09:11:04;;;;;;;;;3.75;3.00;;;;;12.17;80.86;98365.41;5075553;28;8850;-58
2023/10/31 09:13:32;;;;;;;;;2.25;2.00;;;;;12.22;80.93;98376.38;5075673;28;8858;-58
2023/10/31 09:16:00;;;;;;;;;4.00;4.00;;;;;12.27;80.84;98366.03;5075228;28;8844;-59
2023/10/31 09:18:28;;;;;;;;;3.00;3.00;;;;;12.29;80.51;98385.38;5075002;28;8839;-58
2023/10/31 09:20:56;;;;;;;;;3.00;3.00;;;;;12.30;80.93;98393.22;5075408;28;8835;-58
2023/10/31 09:23:24;;;;;;;;;4.75;3.75;;;;;12.31;80.38;98394.06;5074447;28;8844;-59
2023/10/31 09:25:52;;;;;;;;;5.50;4.00;;;;;12.29;80.48;98396.03;5074726;28;8886;-56
2023/10/31 09:28:20;;;;;;;;;4.00;4.00;;;;;12.28;80.86;98397.91;5074545;28;8849;-58
2023/10/31 09:30:48;;;;;;;;;5.00;4.00;;;;;12.34;80.90;98399.03;5072974;28;8952;-58
2023/10/31 09:33:16;;;;;;;;;5.50;5.50;;;;;12.43;80.68;98398.00;5074232;28;9555;-58
2023/10/31 09:35:44;;;;;;;;;3.75;3.25;;;;;12.47;80.68;98410.03;5074092;28;8852;-58
2023/10/31 09:38:13;;;;;;;;;6.00;6.00;;;;;12.49;80.61;98411.53;5074665;28;8882;-59
2023/10/31 09:40:40;;;;;;;;;5.25;4.00;;;;;12.51;80.49;98416.66;5074470;28;8836;-59
2023/10/31 09:43:08;;;;;;;;;3.50;3.50;;;;;12.51;80.23;98422.88;5074626;28;9560;-59
2023/10/31 09:45:37;;;;;;;;;5.00;4.00;;;;;12.54;80.43;98437.72;5074954;28;8851;-59
2023/10/31 09:48:05;;;;;;;;;2.50;2.50;;;;;12.54;80.57;98443.06;5075312;28;8843;-59
2023/10/31 09:50:33;;;;;;;;;3.00;3.00;;;;;12.52;80.50;98445.03;5074525;28;8820;-58
2023/10/31 09:53:01;;;;;;;;;4.00;4.00;;;;;12.50;80.15;98452.41;5074566;28;8828;-59
2023/10/31 09:55:29;;;;;;;;;6.00;6.00;;;;;12.51;80.63;98446.88;5074576;28;8902;-57
2023/10/31 09:57:57;;;;;;;;;3.25;3.25;;;;;12.52;80.15;98455.72;5073755;28;8840;-57
2023/10/31 10:00:28;;;;;;;;;6.00;4.00;;;;;12.53;79.61;98455.56;5074442;28;9501;-58
2023/10/31 10:02:56;;;;;;;;;3.00;3.00;;;;;12.58;79.97;98468.38;5073754;28;8832;-59
2023/10/31 10:05:24;;;;;;;;;3.75;3.75;;;;;12.62;79.68;98464.38;5073894;28;8848;-59
2023/10/31 10:07:52;;;;;;;;;5.50;5.00;;;;;12.63;79.83;98471.41;5074379;28;8843;-57
2023/10/31 10:10:21;;;;;;;;;1.00;1.00;;;;;12.66;79.75;98473.72;5073419;28;8828;-57
2023/10/31 10:12:49;;;;;;;;;2.00;2.00;;;;;12.68;79.66;98469.06;5073650;28;8902;-58
2023/10/31 10:15:20;;;;;;;;;2.00;2.00;;;;;12.75;79.64;98473.53;5073617;28;8866;-59
2023/10/31 10:17:48;;;;;;;;;4.75;3.75;;;;;12.78;79.60;98473.19;5073920;28;8857;-57
2023/10/31 10:20:16;;;;;;;;;3.00;3.00;;;;;12.81;79.27;98475.50;5073782;28;8828;-56
2023/10/31 10:22:44;;;;;;;;;1.00;1.00;;;;;12.84;79.75;98479.69;5074900;28;8832;-57
2023/10/31 10:25:14;;;;;;;;;3.50;3.50;;;;;12.81;79.75;98488.88;5074666;28;8859;-57
2023/10/31 10:27:41;;;;;;;;;3.50;3.00;;;;;12.77;79.43;98492.88;5074878;28;8828;-59
2023/10/31 10:30:09;;;;;;;;;3.50;3.50;;;;;12.75;79.82;98492.22;5074704;28;9534;-60
2023/10/31 10:32:37;;;;;;;;;2.50;2.00;;;;;12.76;79.40;98495.75;5074309;28;8847;-60
2023/10/31 10:35:06;;;;;;;;;4.00;4.00;;;;;12.81;79.57;98506.72;5073694;28;8958;-59
2023/10/31 10:37:34;;;;;;;;;2.00;2.00;;;;;12.84;79.55;98512.56;5072490;28;8824;-60
2023/10/31 10:40:01;;;;;;;;;5.50;5.50;;;;;12.84;79.40;98509.88;5073103;28;9648;-57
2023/10/31 10:42:29;;;;;;;;;6.00;3.00;;;;;12.82;79.32;98511.91;5073549;28;8923;-59
2023/10/31 10:44:57;;;;;;;;;5.50;4.00;;;;;12.79;79.45;98522.09;5073044;28;8871;-58
2023/10/31 10:47:25;;;;;;;;;3.50;3.25;;;;;12.75;79.21;98513.59;5073044;28;8843;-58
2023/10/31 10:49:53;;;;;;;;;6.25;4.50;;;;;12.73;79.72;98526.28;5073125;28;8970;-57
2023/10/31 10:52:21;;;;;;;;;4.00;4.00;;;;;12.70;79.97;98523.94;5073546;28;8836;-59
2023/10/31 10:54:49;;;;;;;;;4.00;3.50;;;;;12.66;80.12;98527.97;5072830;28;8852;-57
2023/10/31 10:57:16;;;;;;;;;4.00;3.75;;;;;12.64;79.74;98523.81;5073199;28;8855;-57
2023/10/31 10:59:44;;;;;;;;;6.00;3.75;;;;;12.59;80.29;98534.16;5073654;28;8905;-57
2023/10/31 11:02:14;;;;;;;;;2.50;2.50;;;;;12.56;80.54;98542.50;5073107;28;8863;-57
2023/10/31 11:04:42;;;;;;;;;4.50;3.75;;;;;12.53;80.27;98546.34;5073575;28;8873;-59
2023/10/31 11:07:10;;;;;;;;;4.00;3.00;;;;;12.50;79.87;98540.50;5073767;28;8929;-57
2023/10/31 11:09:38;;;;;;;;;4.00;4.00;;;;;12.49;80.21;98538.84;5074034;28;8843;-60
2023/10/31 11:12:06;;;;;;;;;6.25;6.25;;;;;12.49;80.22;98546.84;5074224;28;8850;-57
2023/10/31 11:14:33;;;;;;;;;5.00;4.00;;;;;12.46;80.15;98545.34;5074151;28;8851;-59
2023/10/31 11:17:02;;;;;;;;;4.00;3.25;;;;;12.42;80.24;98553.84;5073257;28;8851;-58
2023/10/31 11:19:30;;;;;;;;;3.25;3.00;;;;;12.38;80.15;98548.03;5074165;28;8859;-58
2023/10/31 11:21:58;;;;;;;;;5.00;3.75;;;;;12.36;80.36;98551.84;5074484;28;9477;-59
2023/10/31 11:24:26;;;;;;;;;5.50;5.50;;;;;12.34;80.41;98553.88;5074191;28;8843;-58
2023/10/31 11:26:54;;;;;;;;;3.50;3.50;;;;;12.33;80.68;98546.88;5073363;28;8920;-59
2023/10/31 11:29:22;;;;;;;;;3.75;3.75;;;;;12.34;80.37;98557.38;5072073;28;8840;-59
2023/10/31 11:31:50;;;;;;;;;4.00;3.50;;;;;12.35;80.40;98559.03;5073566;28;8847;-57
2023/10/31 11:34:18;;;;;;;;;4.00;4.00;;;;;12.37;80.24;98554.38;5072922;28;8966;-59
2023/10/31 11:36:48;;;;;;;;;4.50;4.00;;;;;12.38;80.04;98556.03;5072869;28;8862;-57
2023/10/31 11:39:16;;;;;;;;;4.00;4.00;;;;;12.41;80.36;98552.19;5072837;28;8875;-59
2023/10/31 11:41:44;;;;;;;;;3.25;3.00;;;;;12.42;80.33;98556.53;5073351;28;8831;-59
2023/10/31 11:44:12;;;;;;;;;6.00;4.00;;;;;12.44;80.61;98562.53;5073514;28;8851;-59